Time;durP1;ratioP1;P1;durP2;ratioP2;P2;SDS_P1;SDS_P2;PMS_P1;PMS_P2;Temp;Humidity;BMP_temperature;BMP_pressure;BME280_temperature;BME280_humidity;BME280_pressure;Samples;Min_cycle;Max_cycle;Signal;HPM_P1;HPM_P2
2023/04/23 00:01:59;;;;;;;43.95;29.17;;;10.80;98.10;;;;;;5013583;28;20395;-72
2023/04/23 00:04:27;;;;;;;45.20;30.33;;;10.80;99.90;;;;;;5014714;28;20399;-72
2023/04/23 00:06:53;;;;;;;43.80;28.95;;;10.80;99.90;;;;;;5014660;28;20391;-72
2023/04/23 00:09:22;;;;;;;43.97;30.45;;;10.80;99.90;;;;;;5014592;28;20395;-71
2023/04/23 00:11:48;;;;;;;43.17;29.02;;;10.80;99.90;;;;;;5031436;28;20482;-71
2023/04/23 00:14:14;;;;;;;45.10;28.63;;;10.80;99.90;;;;;;5032495;28;20569;-72
2023/04/23 00:16:40;;;;;;;44.75;27.88;;;11.00;99.90;;;;;;5032330;28;20470;-72
2023/04/23 00:19:06;;;;;;;40.05;28.02;;;11.10;98.10;;;;;;5013449;28;20502;-72
2023/04/23 00:21:32;;;;;;;47.93;28.33;;;11.10;96.30;;;;;;5013096;28;20391;-72
2023/04/23 00:23:57;;;;;;;48.77;30.33;;;10.90;98.40;;;;;;5043600;28;20409;-71
2023/04/23 00:26:23;;;;;;;46.40;30.93;;;10.80;99.90;;;;;;5048347;28;20395;-72
2023/04/23 00:28:48;;;;;;;44.53;29.10;;;10.80;99.90;;;;;;5044453;28;20874;-70
2023/04/23 00:31:14;;;;;;;46.83;31.50;;;10.80;99.90;;;;;;5041282;28;20479;-71
2023/04/23 00:33:39;;;;;;;46.70;31.67;;;10.70;99.90;;;;;;5052275;28;20369;-72
2023/04/23 00:36:05;;;;;;;54.67;33.30;;;10.80;99.90;;;;;;5034450;28;20400;-73
2023/04/23 00:38:31;;;;;;;52.30;34.45;;;10.80;99.90;;;;;;5051704;28;20401;-71
2023/04/23 00:40:57;;;;;;;53.72;33.58;;;10.80;99.90;;;;;;5035952;28;20394;-71
2023/04/23 00:43:23;;;;;;;54.83;36.30;;;10.70;99.90;;;;;;5031374;28;20393;-71
2023/04/23 00:45:49;;;;;;;56.90;36.30;;;10.70;99.90;;;;;;5048880;28;20767;-72
2023/04/23 00:48:15;;;;;;;54.90;33.72;;;10.80;99.90;;;;;;5048731;28;20448;-72
2023/04/23 00:50:41;;;;;;;49.13;31.95;;;10.70;99.90;;;;;;5036510;28;20441;-73
2023/04/23 00:53:07;;;;;;;52.92;33.92;;;10.70;99.90;;;;;;5044316;28;20377;-71
2023/04/23 00:55:33;;;;;;;51.67;33.25;;;10.70;99.90;;;;;;5064603;28;20402;-75
2023/04/23 00:57:59;;;;;;;50.40;33.80;;;10.70;99.90;;;;;;5043428;28;20475;-75
2023/04/23 01:00:25;;;;;;;51.93;32.90;;;10.70;99.90;;;;;;5053245;28;20816;-74
2023/04/23 01:02:52;;;;;;;54.78;33.70;;;10.70;99.90;;;;;;5051185;28;20411;-73
2023/04/23 01:05:20;;;;;;;53.17;32.80;;;10.80;99.90;;;;;;5051408;28;20382;-72
2023/04/23 01:07:46;;;;;;;47.88;32.28;;;10.80;99.90;;;;;;5050686;28;20866;-72
2023/04/23 01:10:12;;;;;;;47.08;31.02;;;10.70;99.90;;;;;;5033122;28;20389;-73
2023/04/23 01:12:38;;;;;;;45.13;29.90;;;10.70;99.90;;;;;;5050159;28;20393;-71
2023/04/23 01:15:05;;;;;;;51.92;32.25;;;10.70;99.90;;;;;;5050522;28;20381;-71
2023/04/23 01:17:31;;;;;;;47.22;30.90;;;10.60;99.90;;;;;;5050720;28;20395;-72
2023/04/23 01:19:56;;;;;;;50.47;32.83;;;10.60;99.90;;;;;;5050595;28;20785;-72
2023/04/23 01:22:23;;;;;;;50.10;32.00;;;10.50;99.90;;;;;;5050062;28;20854;-72
2023/04/23 01:24:49;;;;;;;53.97;32.78;;;10.50;99.90;;;;;;5050693;28;20419;-71
2023/04/23 01:27:15;;;;;;;49.70;32.80;;;10.50;99.90;;;;;;5050727;28;20409;-71
2023/04/23 01:29:41;;;;;;;49.92;32.40;;;10.60;99.90;;;;;;5051745;28;20377;-71
2023/04/23 01:32:07;;;;;;;53.47;33.28;;;10.60;99.90;;;;;;5053564;28;20988;-72
2023/04/23 01:34:34;;;;;;;56.00;34.08;;;10.70;99.90;;;;;;5054934;28;20381;-73
2023/04/23 01:37:02;;;;;;;53.70;34.17;;;10.60;99.90;;;;;;5054992;28;20426;-73
2023/04/23 01:39:27;;;;;;;56.53;35.60;;;10.60;99.90;;;;;;5054556;28;20487;-73
2023/04/23 01:41:53;;;;;;;56.87;35.40;;;10.50;99.90;;;;;;5053888;28;20435;-73
2023/04/23 01:44:19;;;;;;;54.90;34.93;;;10.40;99.90;;;;;;5054644;28;20392;-72
2023/04/23 01:46:45;;;;;;;60.83;36.57;;;10.30;99.90;;;;;;5036897;28;20396;-71
2023/04/23 01:49:11;;;;;;;60.45;37.83;;;10.30;99.90;;;;;;5055042;28;20396;-71
2023/04/23 01:51:37;;;;;;;59.67;37.93;;;10.20;99.90;;;;;;5023058;28;20385;-72
2023/04/23 01:54:02;;;;;;;66.03;37.10;;;10.20;99.90;;;;;;5056666;28;20762;-72
2023/04/23 01:56:29;;;;;;;61.90;38.50;;;10.10;99.90;;;;;;5054899;28;20860;-71
2023/04/23 01:58:55;;;;;;;59.03;37.83;;;10.10;99.90;;;;;;5036360;28;20494;-72
2023/04/23 02:01:20;;;;;;;67.47;39.80;;;10.00;99.90;;;;;;5036026;28;20381;-72
2023/04/23 02:03:48;;;;;;;62.63;38.37;;;10.00;99.90;;;;;;5054446;28;20445;-73
2023/04/23 02:06:14;;;;;;;63.08;39.00;;;10.00;99.90;;;;;;5054341;28;20377;-71
2023/04/23 02:08:40;;;;;;;62.20;37.70;;;9.90;99.90;;;;;;5054084;28;20723;-72
2023/04/23 02:11:05;;;;;;;62.92;36.70;;;9.90;99.90;;;;;;5053549;28;20389;-72
2023/04/23 02:13:31;;;;;;;63.55;36.90;;;9.90;99.90;;;;;;5053746;28;20401;-72
2023/04/23 02:15:57;;;;;;;65.85;39.20;;;9.90;99.90;;;;;;5036599;28;20960;-73
2023/04/23 02:18:22;;;;;;;63.47;36.63;;;9.80;99.90;;;;;;5054888;28;20411;-71
2023/04/23 02:20:48;;;;;;;65.27;38.70;;;9.80;99.90;;;;;;5036168;28;20468;-72
2023/04/23 02:23:14;;;;;;;65.17;38.90;;;9.70;99.90;;;;;;5054284;28;20408;-73
2023/04/23 02:25:39;;;;;;;64.60;38.97;;;9.60;99.90;;;;;;5057794;28;20883;-72
2023/04/23 02:28:06;;;;;;;70.87;40.60;;;9.70;99.90;;;;;;5060554;28;20373;-72
2023/04/23 02:30:33;;;;;;;72.15;40.97;;;9.70;99.90;;;;;;5062989;28;20404;-72
2023/04/23 02:32:58;;;;;;;76.80;42.13;;;9.70;99.90;;;;;;5060127;28;20439;-71
2023/04/23 02:35:24;;;;;;;73.37;41.70;;;9.60;99.90;;;;;;5053661;28;20389;-72
2023/04/23 02:37:53;;;;;;;70.75;42.65;;;9.60;99.90;;;;;;5035141;28;20523;-72
2023/04/23 02:40:19;;;;;;;70.10;39.63;;;9.60;99.90;;;;;;5035010;28;20412;-71
2023/04/23 02:42:44;;;;;;;77.15;42.95;;;9.60;99.90;;;;;;5033696;28;20389;-72
2023/04/23 02:45:10;;;;;;;72.45;42.33;;;9.60;99.90;;;;;;5053176;28;20420;-71
2023/04/23 02:47:36;;;;;;;73.53;42.72;;;9.70;99.90;;;;;;5036706;28;20965;-71
2023/04/23 02:50:04;;;;;;;75.60;42.17;;;9.80;99.90;;;;;;5057458;28;20421;-72
2023/04/23 02:52:30;;;;;;;73.13;42.63;;;9.80;99.90;;;;;;5057114;28;20381;-72
2023/04/23 02:54:55;;;;;;;73.82;42.58;;;10.00;99.90;;;;;;5071739;28;20389;-72
2023/04/23 02:57:21;;;;;;;74.55;42.95;;;10.10;99.90;;;;;;5061644;28;20393;-71
2023/04/23 02:59:47;;;;;;;71.80;41.75;;;10.20;99.90;;;;;;5052831;28;20438;-72
2023/04/23 03:02:13;;;;;;;69.13;41.30;;;10.20;99.90;;;;;;5052382;28;20416;-72
2023/04/23 03:04:38;;;;;;;66.60;39.77;;;10.30;99.90;;;;;;5052726;28;20809;-72
2023/04/23 03:07:04;;;;;;;64.85;38.38;;;10.30;99.90;;;;;;5052705;28;20416;-71
2023/04/23 03:09:29;;;;;;;67.40;39.80;;;10.40;99.90;;;;;;5052594;28;20385;-71
2023/04/23 03:11:56;;;;;;;62.80;38.37;;;10.40;99.90;;;;;;5052456;28;20436;-72
2023/04/23 03:14:22;;;;;;;64.50;38.53;;;10.50;99.90;;;;;;5053093;28;20447;-72
2023/04/23 03:16:47;;;;;;;56.42;36.63;;;10.40;99.90;;;;;;5052959;28;20385;-72
2023/04/23 03:19:14;;;;;;;60.40;37.38;;;10.50;99.90;;;;;;5052783;28;20423;-72
2023/04/23 03:21:39;;;;;;;55.10;35.55;;;10.50;99.90;;;;;;5052198;28;20374;-72
2023/04/23 03:24:05;;;;;;;56.65;36.33;;;10.50;99.90;;;;;;5052742;28;20401;-72
2023/04/23 03:26:30;;;;;;;59.33;38.22;;;10.50;99.90;;;;;;5052898;28;20723;-73
2023/04/23 03:28:56;;;;;;;64.28;38.10;;;10.50;99.90;;;;;;5052915;28;20400;-71
2023/04/23 03:31:22;;;;;;;60.13;36.83;;;10.50;99.90;;;;;;5051813;28;20419;-72
2023/04/23 03:33:47;;;;;;;61.90;37.33;;;10.50;99.90;;;;;;5053209;28;20408;-73
2023/04/23 03:36:14;;;;;;;56.10;36.77;;;10.50;99.90;;;;;;5052402;28;20747;-72
2023/04/23 03:38:40;;;;;;;61.15;38.13;;;10.50;99.90;;;;;;5053160;28;20874;-72
2023/04/23 03:41:05;;;;;;;56.07;36.27;;;10.40;99.90;;;;;;5058665;28;20381;-69
2023/04/23 03:43:30;;;;;;;65.33;38.40;;;10.40;99.90;;;;;;5074609;28;20441;-70
2023/04/23 03:45:56;;;;;;;59.60;38.27;;;10.30;99.90;;;;;;5074372;28;20374;-72
2023/04/23 03:48:22;;;;;;;56.75;37.10;;;10.20;99.90;;;;;;5060453;28;20405;-73
2023/04/23 03:50:47;;;;;;;59.95;38.30;;;10.20;99.90;;;;;;5051958;28;20925;-71
2023/04/23 03:53:13;;;;;;;61.28;37.17;;;10.20;99.90;;;;;;5051195;28;20424;-72
2023/04/23 03:55:38;;;;;;;62.05;36.67;;;10.10;99.90;;;;;;5033850;28;20382;-70
2023/04/23 03:58:04;;;;;;;62.15;38.17;;;10.00;99.90;;;;;;5051578;28;20420;-72
2023/04/23 04:00:30;;;;;;;60.10;38.03;;;10.00;99.90;;;;;;5051497;28;20402;-71
2023/04/23 04:02:55;;;;;;;62.40;37.42;;;10.00;99.90;;;;;;5050897;28;20382;-70
2023/04/23 04:05:21;;;;;;;64.90;39.40;;;9.90;99.90;;;;;;5055814;28;20388;-71
2023/04/23 04:07:47;;;;;;;63.25;37.92;;;9.90;99.90;;;;;;5053150;28;20381;-71
2023/04/23 04:10:13;;;;;;;69.20;40.13;;;9.90;99.90;;;;;;5051357;28;20443;-71
2023/04/23 04:12:39;;;;;;;63.13;39.30;;;9.80;99.90;;;;;;5050711;28;20447;-71
2023/04/23 04:15:05;;;;;;;69.33;40.10;;;9.80;99.90;;;;;;5051310;28;20923;-72
2023/04/23 04:17:31;;;;;;;68.25;40.75;;;9.80;99.90;;;;;;5051179;28;20377;-71
2023/04/23 04:19:56;;;;;;;68.00;40.15;;;9.80;99.90;;;;;;5052024;28;20408;-73
2023/04/23 04:22:23;;;;;;;70.68;40.05;;;9.80;99.90;;;;;;5052982;28;20381;-72
2023/04/23 04:24:50;;;;;;;71.97;40.85;;;9.80;99.90;;;;;;5053618;28;20389;-73
2023/04/23 04:27:16;;;;;;;70.43;40.23;;;9.80;99.90;;;;;;5054333;28;20391;-72
2023/04/23 04:29:42;;;;;;;68.05;41.20;;;9.90;99.90;;;;;;5054651;28;20392;-73
2023/04/23 04:32:09;;;;;;;68.97;41.33;;;9.80;99.90;;;;;;5053841;28;20888;-72
2023/04/23 04:34:37;;;;;;;64.93;39.53;;;9.90;99.90;;;;;;5018119;28;20389;-72
2023/04/23 04:37:03;;;;;;;61.50;39.97;;;10.00;99.90;;;;;;5033488;28;20398;-72
2023/04/23 04:39:29;;;;;;;70.22;41.88;;;10.00;99.90;;;;;;5051919;28;20403;-73
2023/04/23 04:41:56;;;;;;;65.90;40.93;;;10.10;99.90;;;;;;5058881;28;20378;-73
2023/04/23 04:44:22;;;;;;;67.07;40.33;;;10.20;99.90;;;;;;5055602;28;20386;-75
2023/04/23 04:46:47;;;;;;;67.00;40.10;;;10.20;99.90;;;;;;5055514;28;20377;-75
2023/04/23 04:49:13;;;;;;;68.40;40.23;;;10.30;99.90;;;;;;5054713;28;20476;-73
2023/04/23 04:51:40;;;;;;;61.30;38.17;;;10.30;99.90;;;;;;5054553;28;20414;-70
2023/04/23 04:54:06;;;;;;;62.05;39.00;;;10.40;99.90;;;;;;5052727;28;20439;-72
2023/04/23 04:56:33;;;;;;;61.75;38.78;;;10.50;99.90;;;;;;5051765;28;20391;-73
2023/04/23 04:58:59;;;;;;;63.10;38.22;;;10.60;99.90;;;;;;5051351;28;20401;-72
2023/04/23 05:01:26;;;;;;;59.80;37.47;;;10.70;99.90;;;;;;5051143;28;20384;-71
2023/04/23 05:03:52;;;;;;;58.63;36.88;;;10.80;99.90;;;;;;5052382;28;20409;-72
2023/04/23 05:06:18;;;;;;;56.00;36.60;;;10.90;99.90;;;;;;5053211;28;20383;-73
2023/04/23 05:08:47;;;;;;;56.75;36.85;;;11.00;99.90;;;;;;5052128;28;20468;-72
2023/04/23 05:11:17;;;;;;;57.60;37.63;;;11.10;99.90;;;;;;5050939;28;20434;-72
2023/04/23 05:13:48;;;;;;;59.30;36.33;;;11.10;99.90;;;;;;5054194;28;20389;-73
2023/04/23 05:16:14;;;;;;;51.53;34.67;;;11.10;99.90;;;;;;5057753;28;20378;-72
2023/04/23 05:18:40;;;;;;;51.60;33.90;;;11.20;99.90;;;;;;5056710;28;20905;-74
2023/04/23 05:21:06;;;;;;;50.65;34.17;;;11.30;99.90;;;;;;5052042;28;20468;-73
2023/04/23 05:23:32;;;;;;;54.67;34.85;;;11.40;99.90;;;;;;5052765;28;20412;-73
2023/04/23 05:25:57;;;;;;;55.22;33.22;;;11.50;99.90;;;;;;5051556;28;20389;-73
2023/04/23 05:28:24;;;;;;;50.57;33.00;;;11.50;99.90;;;;;;5050336;28;20385;-72
2023/04/23 05:30:50;;;;;;;48.17;31.90;;;11.60;99.90;;;;;;5032171;28;20382;-72
2023/04/23 05:33:16;;;;;;;47.25;31.17;;;11.60;99.90;;;;;;5050817;28;20397;-72
2023/04/23 05:35:42;;;;;;;51.70;32.60;;;11.70;99.60;;;;;;5050608;28;20386;-71
2023/04/23 05:38:08;;;;;;;50.88;31.83;;;11.70;99.90;;;;;;5051567;28;20378;-72
2023/04/23 05:40:33;;;;;;;54.33;33.67;;;11.70;99.90;;;;;;5050316;28;20492;-71
2023/04/23 05:43:00;;;;;;;52.07;31.70;;;11.70;99.90;;;;;;5049545;28;20380;-74
2023/04/23 05:45:25;;;;;;;50.45;33.10;;;11.70;99.90;;;;;;5050298;28;20939;-71
2023/04/23 05:47:51;;;;;;;44.72;31.80;;;11.70;99.90;;;;;;5050686;28;20401;-74
2023/04/23 05:50:17;;;;;;;47.35;30.85;;;11.70;99.90;;;;;;5033453;28;20447;-72
2023/04/23 05:52:43;;;;;;;43.60;29.02;;;11.80;99.90;;;;;;5049939;28;20795;-72
2023/04/23 05:55:09;;;;;;;43.28;28.88;;;12.00;96.60;;;;;;5050440;28;20392;-72
2023/04/23 05:57:38;;;;;;;38.72;27.80;;;12.10;95.60;;;;;;5051371;28;20385;-75
2023/04/23 06:00:05;;;;;;;42.33;29.00;;;12.10;94.40;;;;;;5033270;28;20433;-76
2023/04/23 06:02:32;;;;;;;45.20;29.70;;;12.10;94.70;;;;;;5050342;28;20469;-74
2023/04/23 06:04:58;;;;;;;43.08;27.83;;;12.20;94.30;;;;;;5050896;28;20423;-71
2023/04/23 06:07:24;;;;;;;41.58;28.45;;;12.30;93.60;;;;;;5032471;28;20421;-73
2023/04/23 06:09:49;;;;;;;36.93;25.90;;;12.30;91.50;;;;;;5050688;28;21095;-74
2023/04/23 06:12:15;;;;;;;36.10;26.33;;;12.40;92.00;;;;;;5050406;28;20405;-73
2023/04/23 06:14:40;;;;;;;38.58;25.83;;;12.50;91.30;;;;;;5051161;28;20886;-73
2023/04/23 06:17:06;;;;;;;37.58;25.33;;;12.60;89.50;;;;;;5033885;28;20381;-73
2023/04/23 06:19:31;;;;;;;37.72;25.10;;;12.70;88.40;;;;;;5053981;28;20405;-72
2023/04/23 06:21:57;;;;;;;36.40;24.00;;;12.80;85.60;;;;;;5053628;28;20389;-71
2023/04/23 06:24:23;;;;;;;38.40;24.03;;;12.90;84.70;;;;;;5053873;28;20381;-73
2023/04/23 06:26:48;;;;;;;33.50;22.63;;;13.00;84.90;;;;;;5053667;28;20393;-70
2023/04/23 06:29:14;;;;;;;37.07;23.53;;;13.20;82.20;;;;;;5053502;28;20381;-72
2023/04/23 06:31:40;;;;;;;31.45;22.77;;;13.40;79.50;;;;;;5052912;28;20421;-74
2023/04/23 06:34:06;;;;;;;31.95;22.45;;;13.50;77.10;;;;;;5035413;28;20750;-73
2023/04/23 06:36:32;;;;;;;30.98;23.33;;;13.60;77.10;;;;;;5053720;28;20442;-72
2023/04/23 06:38:57;;;;;;;34.10;22.77;;;13.70;75.40;;;;;;5036015;28;20612;-72
2023/04/23 06:41:23;;;;;;;35.07;21.50;;;13.80;74.90;;;;;;5053034;28;20389;-72
2023/04/23 06:43:49;;;;;;;30.15;21.65;;;13.80;75.10;;;;;;5054314;28;20461;-71
2023/04/23 06:46:14;;;;;;;35.27;23.43;;;13.80;74.40;;;;;;5055345;28;20382;-75
2023/04/23 06:48:40;;;;;;;30.47;22.20;;;14.00;73.60;;;;;;5058703;28;20480;-73
2023/04/23 06:51:06;;;;;;;31.73;21.40;;;14.10;71.30;;;;;;5060699;28;20443;-75
2023/04/23 06:53:32;;;;;;;29.90;21.02;;;14.20;70.70;;;;;;5061201;28;20382;-74
2023/04/23 06:55:57;;;;;;;30.40;21.00;;;14.10;70.80;;;;;;5061342;28;20476;-73
2023/04/23 06:58:29;;;;;;;31.23;21.87;;;14.00;72.20;;;;;;5061593;28;20489;-74
2023/04/23 07:01:04;;;;;;;29.05;20.40;;;14.10;70.60;;;;;;5059304;28;20404;-73
2023/04/23 07:03:30;;;;;;;27.88;20.83;;;14.10;72.30;;;;;;5045943;28;20389;-72
2023/04/23 07:05:56;;;;;;;30.63;22.50;;;14.10;71.30;;;;;;5066189;28;20390;-73
2023/04/23 07:08:22;;;;;;;32.08;22.48;;;14.20;71.40;;;;;;5049455;28;20421;-72
2023/04/23 07:10:48;;;;;;;29.95;21.00;;;14.50;70.80;;;;;;5063539;28;20377;-74
2023/04/23 07:13:14;;;;;;;27.83;20.50;;;14.60;68.00;;;;;;5055656;28;20396;-75
2023/04/23 07:15:40;;;;;;;29.77;20.38;;;14.70;68.50;;;;;;5055462;28;20428;-75
2023/04/23 07:18:06;;;;;;;24.85;19.05;;;14.80;65.00;;;;;;5054701;28;20446;-71
2023/04/23 07:20:31;;;;;;;27.80;19.85;;;14.80;65.40;;;;;;5054164;28;20496;-72
2023/04/23 07:22:58;;;;;;;29.73;20.00;;;14.80;64.80;;;;;;5035237;28;20381;-75
2023/04/23 07:25:25;;;;;;;25.30;19.02;;;14.80;64.00;;;;;;5053608;28;20381;-74
2023/04/23 07:27:50;;;;;;;24.65;18.38;;;14.80;64.40;;;;;;5036125;28;20782;-73
2023/04/23 07:30:16;;;;;;;24.85;18.15;;;14.80;63.40;;;;;;5035868;28;20385;-74
2023/04/23 07:32:42;;;;;;;26.70;17.88;;;14.60;64.20;;;;;;5036059;28;20986;-75
2023/04/23 07:35:09;;;;;;;24.52;17.65;;;14.50;66.50;;;;;;5055670;28;20393;-74
2023/04/23 07:37:35;;;;;;;27.33;18.65;;;14.50;67.30;;;;;;5057436;28;20389;-76
2023/04/23 07:40:01;;;;;;;25.42;17.73;;;14.40;66.90;;;;;;5060542;28;20419;-73
2023/04/23 07:42:27;;;;;;;24.90;17.40;;;14.40;67.80;;;;;;5044366;28;20468;-73
2023/04/23 07:44:52;;;;;;;22.80;16.92;;;14.50;67.10;;;;;;5063338;28;20382;-72
2023/04/23 07:47:18;;;;;;;24.95;15.73;;;14.50;66.30;;;;;;5069496;28;20385;-73
2023/04/23 07:49:44;;;;;;;21.33;15.50;;;14.70;62.90;;;;;;5069784;28;20420;-74
2023/04/23 07:52:09;;;;;;;20.27;15.05;;;14.70;62.20;;;;;;5062118;28;20394;-72
2023/04/23 07:54:35;;;;;;;19.20;14.73;;;14.60;62.40;;;;;;5053455;28;20373;-72
2023/04/23 07:57:01;;;;;;;21.30;14.33;;;14.70;61.60;;;;;;5052727;28;20397;-72
2023/04/23 07:59:28;;;;;;;20.83;15.10;;;14.70;61.60;;;;;;5058088;28;20397;-72
2023/04/23 08:01:54;;;;;;;19.50;13.93;;;14.80;61.90;;;;;;5058741;28;20501;-73
2023/04/23 08:04:19;;;;;;;14.88;11.90;;;14.90;61.00;;;;;;5059029;28;20385;-73
2023/04/23 08:06:45;;;;;;;16.60;11.70;;;15.00;56.30;;;;;;5059599;28;20387;-72
2023/04/23 08:09:11;;;;;;;15.65;11.52;;;15.10;57.10;;;;;;5060153;28;20445;-73
2023/04/23 08:11:36;;;;;;;20.60;12.00;;;15.20;55.90;;;;;;5059037;28;20402;-72
2023/04/23 08:14:02;;;;;;;14.57;11.30;;;15.30;55.20;;;;;;5053908;28;20399;-72
2023/04/23 08:16:27;;;;;;;16.25;11.18;;;15.50;55.00;;;;;;5053481;28;20381;-73
2023/04/23 08:18:53;;;;;;;13.40;10.50;;;15.50;52.80;;;;;;5051972;28;20496;-73
2023/04/23 08:21:19;;;;;;;12.43;8.70;;;15.50;53.20;;;;;;5033910;28;20790;-74
2023/04/23 08:23:45;;;;;;;12.75;9.15;;;15.60;49.70;;;;;;5052213;28;20389;-73
2023/04/23 08:26:10;;;;;;;12.75;7.20;;;15.70;50.00;;;;;;5050679;28;20406;-73
2023/04/23 08:28:36;;;;;;;10.43;7.43;;;15.70;46.80;;;;;;5067471;28;20420;-70
2023/04/23 08:31:01;;;;;;;15.37;7.23;;;15.90;46.30;;;;;;5052270;28;20403;-72
2023/04/23 08:33:27;;;;;;;15.00;7.50;;;16.10;44.60;;;;;;5057028;28;20402;-73
2023/04/23 08:35:52;;;;;;;10.88;7.57;;;16.20;42.20;;;;;;5056811;28;20574;-71
2023/04/23 08:38:18;;;;;;;10.73;7.47;;;16.20;43.30;;;;;;5060707;28;20403;-76
2023/04/23 08:40:45;;;;;;;9.93;7.50;;;16.30;42.50;;;;;;5058199;28;20416;-72
2023/04/23 08:43:19;;;;;;;17.88;7.70;;;16.50;40.50;;;;;;5055277;28;20407;-73
2023/04/23 08:45:46;;;;;;;11.05;8.38;;;16.80;39.70;;;;;;5063125;28;20875;-74
2023/04/23 08:48:13;;;;;;;15.35;7.80;;;17.10;38.30;;;;;;5047115;28;20405;-73
2023/04/23 08:50:42;;;;;;;10.75;6.85;;;17.00;39.00;;;;;;5051401;28;20396;-74
2023/04/23 08:53:08;;;;;;;12.00;7.15;;;17.10;37.50;;;;;;5018161;28;21064;-73
2023/04/23 08:55:35;;;;;;;11.05;6.85;;;17.20;37.10;;;;;;5028893;28;20403;-74
2023/04/23 08:58:03;;;;;;;11.95;6.20;;;17.30;35.60;;;;;;5028354;28;20461;-72
2023/04/23 09:00:29;;;;;;;11.73;5.30;;;17.40;35.50;;;;;;5028875;28;20445;-73
2023/04/23 09:02:57;;;;;;;11.23;5.18;;;17.60;31.90;;;;;;5028400;28;20457;-73
2023/04/23 09:05:23;;;;;;;11.73;4.72;;;17.60;31.40;;;;;;5040255;28;20396;-76
2023/04/23 09:07:48;;;;;;;8.10;4.70;;;17.70;29.80;;;;;;5032664;28;20397;-73
2023/04/23 09:10:14;;;;;;;10.20;4.57;;;17.70;29.40;;;;;;5030564;28;20758;-73
2023/04/23 09:12:42;;;;;;;11.03;5.70;;;17.60;29.70;;;;;;5030199;28;20486;-73
2023/04/23 09:15:11;;;;;;;8.57;4.30;;;17.70;30.40;;;;;;5039169;28;20411;-73
2023/04/23 09:17:42;;;;;;;11.50;5.00;;;17.80;29.10;;;;;;5028637;28;20378;-73
2023/04/23 09:20:09;;;;;;;12.55;4.97;;;17.90;29.80;;;;;;5038232;28;20418;-73
2023/04/23 09:22:46;;;;;;;8.75;5.50;;;18.10;29.70;;;;;;5035000;28;20408;-72
2023/04/23 09:25:14;;;;;;;11.32;4.95;;;18.20;29.00;;;;;;5049231;28;20846;-73
2023/04/23 09:27:40;;;;;;;10.20;5.47;;;18.20;28.40;;;;;;5042311;28;20456;-73
2023/04/23 09:30:10;;;;;;;9.20;4.97;;;18.20;27.80;;;;;;5038452;28;20884;-72
2023/04/23 09:32:39;;;;;;;10.10;4.97;;;18.20;26.90;;;;;;5025501;28;20452;-74
2023/04/23 09:35:07;;;;;;;10.20;5.68;;;18.40;25.70;;;;;;5028983;28;20386;-73
2023/04/23 09:37:33;;;;;;;9.68;4.75;;;18.60;25.50;;;;;;5025117;28;20540;-73
2023/04/23 09:40:00;;;;;;;6.93;4.22;;;18.50;25.90;;;;;;5049042;28;20727;-73
2023/04/23 09:42:27;;;;;;;4.78;3.90;;;18.80;24.90;;;;;;5030672;28;20404;-73
2023/04/23 09:44:58;;;;;;;7.28;4.30;;;19.10;24.50;;;;;;5029014;28;20406;-72
2023/04/23 09:47:23;;;;;;;6.88;4.35;;;19.20;24.00;;;;;;5028851;28;20419;-74
2023/04/23 09:49:49;;;;;;;8.65;5.25;;;19.40;23.30;;;;;;5030302;28;20430;-73
2023/04/23 09:52:16;;;;;;;5.70;4.32;;;19.50;23.20;;;;;;5044885;28;20408;-73
2023/04/23 09:54:42;;;;;;;8.48;5.43;;;19.40;22.90;;;;;;5033929;28;20540;-72
2023/04/23 09:57:08;;;;;;;6.10;4.60;;;19.70;23.00;;;;;;5006650;28;20403;-72
2023/04/23 09:59:37;;;;;;;5.43;4.03;;;19.80;22.50;;;;;;5051603;28;20409;-73
2023/04/23 10:02:05;;;;;;;7.15;4.10;;;19.90;22.20;;;;;;5051583;28;20861;-73
2023/04/23 10:04:32;;;;;;;5.35;3.80;;;19.90;20.70;;;;;;5050179;28;20972;-72
2023/04/23 10:07:03;;;;;;;6.03;3.97;;;19.80;21.50;;;;;;5053201;28;20446;-74
2023/04/23 10:09:29;;;;;;;6.35;3.70;;;19.90;21.00;;;;;;5033683;28;21158;-73
2023/04/23 10:12:01;;;;;;;6.30;4.23;;;19.60;22.00;;;;;;5055078;28;20480;-73
2023/04/23 10:14:28;;;;;;;7.57;4.05;;;19.60;21.40;;;;;;5035339;28;20461;-72
2023/04/23 10:17:01;;;;;;;9.20;3.40;;;19.50;20.40;;;;;;5051489;28;20413;-72
2023/04/23 10:19:28;;;;;;;6.30;2.97;;;19.60;19.80;;;;;;5052425;28;20477;-72
2023/04/23 10:21:56;;;;;;;6.20;3.30;;;19.70;19.50;;;;;;5054074;28;20393;-73
2023/04/23 10:24:24;;;;;;;7.47;3.10;;;19.60;19.40;;;;;;5059762;28;20389;-73
2023/04/23 10:26:52;;;;;;;7.05;3.30;;;19.50;19.70;;;;;;5049209;28;20403;-71
2023/04/23 10:29:24;;;;;;;5.30;3.45;;;19.40;21.40;;;;;;5074303;28;20389;-71
2023/04/23 10:31:51;;;;;;;5.95;3.15;;;19.10;25.40;;;;;;5055729;28;20396;-73
2023/04/23 10:34:18;;;;;;;8.77;3.30;;;19.00;26.30;;;;;;5051141;28;20483;-72
2023/04/23 10:36:43;;;;;;;8.70;4.00;;;18.60;29.70;;;;;;5052095;28;20460;-72
2023/04/23 10:39:10;;;;;;;10.27;3.83;;;18.10;30.50;;;;;;5050945;28;20818;-72
2023/04/23 10:41:40;;;;;;;10.95;4.60;;;17.90;30.70;;;;;;5040622;28;20395;-72
2023/04/23 10:44:10;;;;;;;9.32;3.20;;;17.80;39.70;;;;;;5031885;28;20430;-72
2023/04/23 10:46:36;;;;;;;7.75;3.30;;;17.30;35.50;;;;;;5056290;28;20936;-73
2023/04/23 10:49:13;;;;;;;8.53;3.40;;;17.10;36.60;;;;;;5044807;28;20492;-72
2023/04/23 10:51:41;;;;;;;7.43;4.28;;;17.30;37.20;;;;;;5061369;28;20389;-72
2023/04/23 10:54:13;;;;;;;7.22;4.10;;;17.80;38.80;;;;;;5065060;28;20396;-72
2023/04/23 10:56:40;;;;;;;13.48;4.10;;;18.40;40.20;;;;;;5054488;28;20392;-73
2023/04/23 10:59:08;;;;;;;13.23;4.60;;;18.70;35.90;;;;;;5034369;28;20518;-72
2023/04/23 11:01:33;;;;;;;9.32;4.15;;;18.60;38.00;;;;;;5049807;28;20934;-72
2023/04/23 11:04:19;;;;;;;9.67;3.40;;;18.60;34.20;;;;;;5047660;28;20887;-73
2023/04/23 11:06:48;;;;;;;8.85;2.90;;;18.40;32.90;;;;;;5050621;28;21082;-74
2023/04/23 11:09:29;;;;;;;13.10;3.22;;;18.20;29.90;;;;;;5050254;28;20393;-72
2023/04/23 11:11:56;;;;;;;9.27;3.17;;;18.10;33.20;;;;;;5049254;28;20938;-73
2023/04/23 11:14:34;;;;;;;7.75;2.95;;;18.10;34.40;;;;;;5050770;28;20479;-72
2023/04/23 11:17:01;;;;;;;10.18;3.50;;;18.40;31.80;;;;;;5050589;28;20526;-72
2023/04/23 11:19:28;;;;;;;6.55;3.20;;;18.80;31.70;;;;;;5032508;28;20397;-75
2023/04/23 11:22:06;;;;;;;9.27;3.40;;;19.20;28.60;;;;;;5050406;28;20494;-72
2023/04/23 11:24:45;;;;;;;8.63;4.00;;;19.80;29.00;;;;;;5035775;28;20921;-74
2023/04/23 11:27:16;;;;;;;6.80;2.90;;;20.20;28.70;;;;;;5046060;28;20771;-74
2023/04/23 11:29:43;;;;;;;9.40;3.50;;;20.30;24.50;;;;;;5031455;28;20390;-75
2023/04/23 11:32:11;;;;;;;9.80;3.40;;;20.60;24.90;;;;;;5041748;28;20404;-71
2023/04/23 11:34:42;;;;;;;12.30;3.53;;;20.70;22.80;;;;;;5050562;28;20403;-74
2023/04/23 11:37:14;;;;;;;5.80;3.15;;;20.80;22.60;;;;;;5051579;28;20378;-73
2023/04/23 11:39:42;;;;;;;7.75;2.70;;;20.90;22.10;;;;;;5050319;28;20969;-71
2023/04/23 11:42:13;;;;;;;8.68;2.13;;;21.10;22.70;;;;;;5035777;28;20445;-74
2023/04/23 11:44:43;;;;;;;6.40;2.70;;;21.10;17.40;;;;;;5045031;28;20896;-73
2023/04/23 11:47:11;;;;;;;5.60;2.10;;;21.40;19.60;;;;;;5050663;28;20413;-73
2023/04/23 11:49:43;;;;;;;4.45;1.90;;;21.60;14.90;;;;;;5051520;28;20736;-72
2023/04/23 11:52:10;;;;;;;4.25;2.20;;;21.60;15.30;;;;;;5052620;28;20385;-74
2023/04/23 11:54:39;;;;;;;6.70;2.30;;;21.80;16.60;;;;;;5052799;28;20440;-74
2023/04/23 11:57:05;;;;;;;3.17;1.90;;;22.10;15.10;;;;;;5053175;28;20397;-73
2023/04/23 11:59:31;;;;;;;3.80;1.60;;;21.90;14.70;;;;;;5054399;28;20397;-73
2023/04/23 12:01:58;;;;;;;4.78;1.77;;;21.90;13.80;;;;;;5052542;28;20388;-73
2023/04/23 12:04:25;;;;;;;6.15;2.40;;;21.80;12.10;;;;;;5048282;28;20428;-73
2023/04/23 12:06:53;;;;;;;6.60;2.20;;;21.80;13.30;;;;;;5050882;28;20490;-73
2023/04/23 12:09:21;;;;;;;5.70;2.00;;;21.70;14.30;;;;;;5043411;28;20761;-73
2023/04/23 12:11:47;;;;;;;5.55;2.05;;;21.70;13.90;;;;;;5029545;28;20477;-74
2023/04/23 12:14:14;;;;;;;8.05;2.42;;;21.60;12.30;;;;;;5029047;28;20474;-73
2023/04/23 12:16:41;;;;;;;4.72;2.10;;;21.40;14.10;;;;;;5022556;28;20409;-74
2023/04/23 12:19:09;;;;;;;6.43;2.10;;;21.10;14.50;;;;;;5049713;28;20397;-73
2023/04/23 12:21:46;;;;;;;5.28;2.13;;;21.10;14.60;;;;;;5051424;28;20409;-74
2023/04/23 12:24:12;;;;;;;5.22;2.00;;;21.10;14.40;;;;;;5041447;28;21061;-74
2023/04/23 12:26:38;;;;;;;5.80;2.00;;;21.40;13.70;;;;;;5046596;28;20414;-72
2023/04/23 12:29:06;;;;;;;6.25;2.03;;;21.50;13.10;;;;;;5049675;28;20396;-74
2023/04/23 12:31:32;;;;;;;4.75;2.15;;;21.30;12.90;;;;;;5029592;28;20486;-73